sensor_id;sensor_type;location;lat;lon;timestamp;pressure;altitude;pressure_sealevel;temperature;humidity
50250;BME280;36133;42.522;27.456;2023-04-25T00:02:03;100561.63;;;16.24;56.95
50250;BME280;36133;42.522;27.456;2023-04-25T00:04:29;100749.22;;;16.82;58.53
50250;BME280;36133;42.522;27.456;2023-04-25T00:06:55;100550.94;;;15.68;58.06
50250;BME280;36133;42.522;27.456;2023-04-25T00:09:22;100725.59;;;16.76;59.07
50250;BME280;36133;42.522;27.456;2023-04-25T00:11:47;100709.19;;;16.58;59.36
50250;BME280;36133;42.522;27.456;2023-04-25T00:14:13;100494.34;;;15.76;57.39
50250;BME280;36133;42.522;27.456;2023-04-25T00:16:42;100391.44;;;14.30;59.92
50250;BME280;36133;42.522;27.456;2023-04-25T00:19:09;100553.59;;;15.49;59.49
50250;BME280;36133;42.522;27.456;2023-04-25T00:21:34;100429.78;;;14.79;59.99
50250;BME280;36133;42.522;27.456;2023-04-25T00:24:00;100617.22;;;15.98;59.71
50250;BME280;36133;42.522;27.456;2023-04-25T00:26:26;100406.56;;;14.20;60.86
50250;BME280;36133;42.522;27.456;2023-04-25T00:28:52;100703.84;;;16.69;59.37
50250;BME280;36133;42.522;27.456;2023-04-25T00:31:17;100558.72;;;15.64;59.65
50250;BME280;36133;42.522;27.456;2023-04-25T00:33:43;100562.66;;;15.43;60.08
50250;BME280;36133;42.522;27.456;2023-04-25T00:36:09;100603.47;;;15.68;60.74
50250;BME280;36133;42.522;27.456;2023-04-25T00:38:34;100716.25;;;16.65;59.85
50250;BME280;36133;42.522;27.456;2023-04-25T00:41:01;100690.28;;;16.63;59.43
50250;BME280;36133;42.522;27.456;2023-04-25T00:43:27;100672.38;;;16.74;58.83
50250;BME280;36133;42.522;27.456;2023-04-25T00:45:56;100705.41;;;16.59;59.37
50250;BME280;36133;42.522;27.456;2023-04-25T00:48:23;100715.66;;;17.00;58.93
50250;BME280;36133;42.522;27.456;2023-04-25T00:50:55;100631.41;;;16.92;57.40
50250;BME280;36133;42.522;27.456;2023-04-25T00:53:22;100704.78;;;17.12;58.33
50250;BME280;36133;42.522;27.456;2023-04-25T00:55:48;100698.22;;;16.83;58.87
50250;BME280;36133;42.522;27.456;2023-04-25T00:58:17;100571.41;;;16.14;58.86
50250;BME280;36133;42.522;27.456;2023-04-25T01:00:44;100450.19;;;15.49;58.01
50250;BME280;36133;42.522;27.456;2023-04-25T01:03:11;100640.19;;;16.94;57.30
50250;BME280;36133;42.522;27.456;2023-04-25T01:05:36;100613.00;;;16.02;59.91
50250;BME280;36133;42.522;27.456;2023-04-25T01:08:02;100690.06;;;16.03;61.49
50250;BME280;36133;42.522;27.456;2023-04-25T01:10:28;100286.84;;;13.96;60.32
50250;BME280;36133;42.522;27.456;2023-04-25T01:12:54;100488.41;;;15.36;59.65
50250;BME280;36133;42.522;27.456;2023-04-25T01:15:20;100683.78;;;16.64;59.65
50250;BME280;36133;42.522;27.456;2023-04-25T01:17:45;100592.56;;;15.93;59.83
50250;BME280;36133;42.522;27.456;2023-04-25T01:20:12;100606.41;;;16.10;59.65
50250;BME280;36133;42.522;27.456;2023-04-25T01:22:39;100645.09;;;16.74;57.92
50250;BME280;36133;42.522;27.456;2023-04-25T01:25:05;100530.06;;;15.62;58.50
50250;BME280;36133;42.522;27.456;2023-04-25T01:27:32;100625.84;;;16.68;57.43
50250;BME280;36133;42.522;27.456;2023-04-25T01:30:00;100468.78;;;15.34;58.10
50250;BME280;36133;42.522;27.456;2023-04-25T01:32:26;100624.94;;;16.56;56.75
50250;BME280;36133;42.522;27.456;2023-04-25T01:34:52;100665.06;;;17.16;55.33
50250;BME280;36133;42.522;27.456;2023-04-25T01:37:17;100665.44;;;16.71;56.09
50250;BME280;36133;42.522;27.456;2023-04-25T01:39:44;100119.84;;;13.44;55.85
50250;BME280;36133;42.522;27.456;2023-04-25T01:42:09;100666.25;;;16.35;57.47
50250;BME280;36133;42.522;27.456;2023-04-25T01:44:35;100668.31;;;15.78;59.29
50250;BME280;36133;42.522;27.456;2023-04-25T01:47:01;100653.09;;;16.14;58.15
50250;BME280;36133;42.522;27.456;2023-04-25T01:49:32;100640.09;;;16.52;56.47
50250;BME280;36133;42.522;27.456;2023-04-25T01:51:58;100191.97;;;13.58;57.34
50250;BME280;36133;42.522;27.456;2023-04-25T01:54:24;100626.84;;;16.19;57.29
50250;BME280;36133;42.522;27.456;2023-04-25T01:56:51;100645.84;;;16.26;57.65
50250;BME280;36133;42.522;27.456;2023-04-25T01:59:18;100644.00;;;16.20;58.36
50250;BME280;36133;42.522;27.456;2023-04-25T02:01:45;100644.78;;;16.45;57.30
50250;BME280;36133;42.522;27.456;2023-04-25T02:04:10;100476.41;;;15.69;56.02
50250;BME280;36133;42.522;27.456;2023-04-25T02:06:36;100618.75;;;16.13;56.61
50250;BME280;36133;42.522;27.456;2023-04-25T02:09:01;100452.97;;;15.24;56.14
50250;BME280;36133;42.522;27.456;2023-04-25T02:11:27;100618.91;;;16.36;56.34
50250;BME280;36133;42.522;27.456;2023-04-25T02:13:52;100630.19;;;16.39;55.95
50250;BME280;36133;42.522;27.456;2023-04-25T02:16:18;100512.41;;;15.46;56.87
50250;BME280;36133;42.522;27.456;2023-04-25T02:18:44;100575.34;;;15.99;57.06
50250;BME280;36133;42.522;27.456;2023-04-25T02:21:10;100508.38;;;15.48;56.47
50250;BME280;36133;42.522;27.456;2023-04-25T02:23:36;100638.72;;;16.06;57.54
50250;BME280;36133;42.522;27.456;2023-04-25T02:26:02;100624.13;;;16.19;56.97
50250;BME280;36133;42.522;27.456;2023-04-25T02:28:28;100622.25;;;16.38;56.88
50250;BME280;36133;42.522;27.456;2023-04-25T02:30:53;100579.53;;;15.95;56.65
50250;BME280;36133;42.522;27.456;2023-04-25T02:33:19;100614.31;;;15.75;57.69
50250;BME280;36133;42.522;27.456;2023-04-25T02:35:46;100506.94;;;15.28;57.42
50250;BME280;36133;42.522;27.456;2023-04-25T02:38:11;100612.38;;;16.19;56.58
50250;BME280;36133;42.522;27.456;2023-04-25T02:40:37;100438.44;;;15.12;56.79
50250;BME280;36133;42.522;27.456;2023-04-25T02:43:02;100599.94;;;15.86;58.30
50250;BME280;36133;42.522;27.456;2023-04-25T02:45:28;100598.22;;;16.10;57.58
50250;BME280;36133;42.522;27.456;2023-04-25T02:47:54;100596.03;;;15.82;58.05
50250;BME280;36133;42.522;27.456;2023-04-25T02:50:19;100610.19;;;15.41;61.15
50250;BME280;36133;42.522;27.456;2023-04-25T02:52:45;100575.69;;;15.10;60.38
50250;BME280;36133;42.522;27.456;2023-04-25T02:55:11;100600.19;;;15.85;59.04
50250;BME280;36133;42.522;27.456;2023-04-25T02:57:37;100585.31;;;16.24;57.86
50250;BME280;36133;42.522;27.456;2023-04-25T03:00:03;100530.53;;;15.77;57.69
50250;BME280;36133;42.522;27.456;2023-04-25T03:02:31;100331.44;;;14.63;57.36
50250;BME280;36133;42.522;27.456;2023-04-25T03:04:57;100517.00;;;15.70;58.31
50250;BME280;36133;42.522;27.456;2023-04-25T03:07:23;100609.22;;;16.40;57.26
50250;BME280;36133;42.522;27.456;2023-04-25T03:09:48;100219.94;;;14.08;57.10
50250;BME280;36133;42.522;27.456;2023-04-25T03:12:15;100030.91;;;13.03;57.25
50250;BME280;36133;42.522;27.456;2023-04-25T03:14:40;100552.56;;;16.12;57.21
50250;BME280;36133;42.522;27.456;2023-04-25T03:17:06;100427.91;;;15.59;57.08
50250;BME280;36133;42.522;27.456;2023-04-25T03:19:31;100575.69;;;16.39;56.83
50250;BME280;36133;42.522;27.456;2023-04-25T03:21:57;100599.44;;;15.21;60.52
50250;BME280;36133;42.522;27.456;2023-04-25T03:24:23;100593.59;;;14.92;62.20
50250;BME280;36133;42.522;27.456;2023-04-25T03:26:48;100571.03;;;14.85;62.56
50250;BME280;36133;42.522;27.456;2023-04-25T03:29:14;100536.06;;;14.19;63.66
50250;BME280;36133;42.522;27.456;2023-04-25T03:31:39;100302.41;;;13.38;61.43
50250;BME280;36133;42.522;27.456;2023-04-25T03:34:05;100307.38;;;13.47;61.63
50250;BME280;36133;42.522;27.456;2023-04-25T03:36:30;100212.47;;;13.03;61.16
50250;BME280;36133;42.522;27.456;2023-04-25T03:38:56;100404.00;;;14.25;61.30
50250;BME280;36133;42.522;27.456;2023-04-25T03:41:21;100328.53;;;14.33;59.77
50250;BME280;36133;42.522;27.456;2023-04-25T03:43:47;100592.91;;;15.53;60.45
50250;BME280;36133;42.522;27.456;2023-04-25T03:46:13;100593.69;;;15.36;61.63
50250;BME280;36133;42.522;27.456;2023-04-25T03:48:38;100609.25;;;15.78;59.89
50250;BME280;36133;42.522;27.456;2023-04-25T03:51:04;100574.75;;;15.22;61.92
50250;BME280;36133;42.522;27.456;2023-04-25T03:53:29;100506.41;;;14.87;61.78
50250;BME280;36133;42.522;27.456;2023-04-25T03:55:55;100412.06;;;14.45;61.25
50250;BME280;36133;42.522;27.456;2023-04-25T03:58:21;100484.03;;;14.92;61.22
50250;BME280;36133;42.522;27.456;2023-04-25T04:00:48;100511.31;;;15.04;61.43
50250;BME280;36133;42.522;27.456;2023-04-25T04:03:13;99956.81;;;11.76;60.95
50250;BME280;36133;42.522;27.456;2023-04-25T04:05:39;100530.63;;;15.45;60.57
50250;BME280;36133;42.522;27.456;2023-04-25T04:08:06;100591.22;;;16.39;59.24
50250;BME280;36133;42.522;27.456;2023-04-25T04:10:32;100349.09;;;14.54;60.53
50250;BME280;36133;42.522;27.456;2023-04-25T04:12:57;100068.16;;;13.64;59.05
50250;BME280;36133;42.522;27.456;2023-04-25T04:15:23;100098.94;;;13.76;58.57
50250;BME280;36133;42.522;27.456;2023-04-25T04:17:49;100569.13;;;16.29;60.63
50250;BME280;36133;42.522;27.456;2023-04-25T04:20:14;100275.19;;;14.46;60.19
50250;BME280;36133;42.522;27.456;2023-04-25T04:22:40;100367.44;;;14.59;62.01
50250;BME280;36133;42.522;27.456;2023-04-25T04:25:06;100325.59;;;15.76;58.77
50250;BME280;36133;42.522;27.456;2023-04-25T04:27:32;100308.59;;;15.44;59.16
50250;BME280;36133;42.522;27.456;2023-04-25T04:29:57;100313.66;;;15.41;59.04
50250;BME280;36133;42.522;27.456;2023-04-25T04:32:23;100488.72;;;15.90;59.66
50250;BME280;36133;42.522;27.456;2023-04-25T04:34:49;100598.41;;;16.82;60.57
50250;BME280;36133;42.522;27.456;2023-04-25T04:37:14;100540.97;;;16.95;58.84
50250;BME280;36133;42.522;27.456;2023-04-25T04:39:40;100561.56;;;17.56;57.98
50250;BME280;36133;42.522;27.456;2023-04-25T04:42:06;100534.50;;;17.43;58.41
50250;BME280;36133;42.522;27.456;2023-04-25T04:44:32;100400.66;;;17.61;56.33
50250;BME280;36133;42.522;27.456;2023-04-25T04:46:58;100501.34;;;18.78;55.67
50250;BME280;36133;42.522;27.456;2023-04-25T04:49:24;100587.09;;;17.62;60.01
50250;BME280;36133;42.522;27.456;2023-04-25T04:51:49;100592.81;;;19.16;56.80
50250;BME280;36133;42.522;27.456;2023-04-25T04:54:15;100583.47;;;19.79;54.59
50250;BME280;36133;42.522;27.456;2023-04-25T04:56:41;100588.78;;;20.46;54.53
50250;BME280;36133;42.522;27.456;2023-04-25T04:59:07;100584.63;;;21.88;50.73
50250;BME280;36133;42.522;27.456;2023-04-25T05:01:33;100320.59;;;20.43;46.81
50250;BME280;36133;42.522;27.456;2023-04-25T05:04:00;100561.81;;;22.30;44.77
50250;BME280;36133;42.522;27.456;2023-04-25T05:06:26;100291.72;;;21.20;43.60
50250;BME280;36133;42.522;27.456;2023-04-25T05:08:54;100502.00;;;23.08;42.16
50250;BME280;36133;42.522;27.456;2023-04-25T05:11:21;100384.03;;;21.88;42.65
50250;BME280;36133;42.522;27.456;2023-04-25T05:13:46;100471.41;;;21.81;43.27
50250;BME280;36133;42.522;27.456;2023-04-25T05:16:13;100563.09;;;23.92;41.78
50250;BME280;36133;42.522;27.456;2023-04-25T05:18:39;100566.72;;;23.87;41.73
50250;BME280;36133;42.522;27.456;2023-04-25T05:21:05;100511.28;;;23.89;40.30
50250;BME280;36133;42.522;27.456;2023-04-25T05:23:32;100559.16;;;24.78;39.37
50250;BME280;36133;42.522;27.456;2023-04-25T05:25:58;100560.28;;;22.70;43.20
50250;BME280;36133;42.522;27.456;2023-04-25T05:28:24;100552.59;;;25.47;38.78
50250;BME280;36133;42.522;27.456;2023-04-25T05:30:50;100520.59;;;23.98;40.31
50250;BME280;36133;42.522;27.456;2023-04-25T05:33:16;100564.00;;;25.98;37.18
50250;BME280;36133;42.522;27.456;2023-04-25T05:35:41;100350.47;;;26.53;33.99
50250;BME280;36133;42.522;27.456;2023-04-25T05:38:07;100459.84;;;27.21;34.60
50250;BME280;36133;42.522;27.456;2023-04-25T05:40:33;100329.41;;;25.39;34.99
50250;BME280;36133;42.522;27.456;2023-04-25T05:42:58;100555.00;;;24.86;38.21
50250;BME280;36133;42.522;27.456;2023-04-25T05:45:24;100470.31;;;24.26;38.42
50250;BME280;36133;42.522;27.456;2023-04-25T05:47:49;100377.69;;;23.66;38.65
50250;BME280;36133;42.522;27.456;2023-04-25T05:50:15;100542.50;;;25.90;36.81
50250;BME280;36133;42.522;27.456;2023-04-25T05:52:40;100392.97;;;22.82;42.07
50250;BME280;36133;42.522;27.456;2023-04-25T05:55:06;100365.09;;;26.40;35.99
50250;BME280;36133;42.522;27.456;2023-04-25T05:57:32;100524.59;;;26.54;36.06
50250;BME280;36133;42.522;27.456;2023-04-25T05:59:57;100404.25;;;27.86;33.47
50250;BME280;36133;42.522;27.456;2023-04-25T06:02:23;100521.69;;;28.86;32.09
50250;BME280;36133;42.522;27.456;2023-04-25T06:04:52;100532.00;;;26.78;34.18
50250;BME280;36133;42.522;27.456;2023-04-25T06:07:18;100507.34;;;26.39;34.29
50250;BME280;36133;42.522;27.456;2023-04-25T06:09:44;100293.91;;;24.11;35.17
50250;BME280;36133;42.522;27.456;2023-04-25T06:12:10;100330.44;;;23.23;36.54
50250;BME280;36133;42.522;27.456;2023-04-25T06:14:36;100339.16;;;23.51;36.89
50250;BME280;36133;42.522;27.456;2023-04-25T06:17:02;100541.56;;;24.04;37.22
50250;BME280;36133;42.522;27.456;2023-04-25T06:19:35;100211.66;;;22.70;36.88
50250;BME280;36133;42.522;27.456;2023-04-25T06:22:04;100094.84;;;23.07;34.63
50250;BME280;36133;42.522;27.456;2023-04-25T06:24:29;100063.34;;;22.74;34.67
50250;BME280;36133;42.522;27.456;2023-04-25T06:26:55;100123.97;;;22.54;35.39
50250;BME280;36133;42.522;27.456;2023-04-25T06:29:22;100580.06;;;25.96;34.27
50250;BME280;36133;42.522;27.456;2023-04-25T06:31:48;100076.84;;;21.50;35.85
50250;BME280;36133;42.522;27.456;2023-04-25T06:34:20;100377.44;;;21.89;41.57
50250;BME280;36133;42.522;27.456;2023-04-25T06:36:48;100405.97;;;21.78;43.58
50250;BME280;36133;42.522;27.456;2023-04-25T06:39:17;100574.41;;;23.24;42.43
50250;BME280;36133;42.522;27.456;2023-04-25T06:41:42;100362.69;;;22.21;42.33
50250;BME280;36133;42.522;27.456;2023-04-25T06:44:08;100313.63;;;21.67;42.22
50250;BME280;36133;42.522;27.456;2023-04-25T06:46:34;100590.66;;;23.10;42.82
50250;BME280;36133;42.522;27.456;2023-04-25T06:49:02;100376.41;;;22.11;42.15
50250;BME280;36133;42.522;27.456;2023-04-25T06:51:28;100402.84;;;23.24;40.27
50250;BME280;36133;42.522;27.456;2023-04-25T06:53:55;100545.63;;;24.22;39.62
50250;BME280;36133;42.522;27.456;2023-04-25T06:56:21;100401.97;;;23.44;38.68
50250;BME280;36133;42.522;27.456;2023-04-25T06:58:47;100280.97;;;21.81;40.01
50250;BME280;36133;42.522;27.456;2023-04-25T07:01:12;100393.63;;;21.81;41.36
50250;BME280;36133;42.522;27.456;2023-04-25T07:03:40;99979.69;;;18.90;42.53
50250;BME280;36133;42.522;27.456;2023-04-25T07:06:06;100545.53;;;21.71;43.81
50250;BME280;36133;42.522;27.456;2023-04-25T07:08:32;100059.03;;;17.86;45.02
50250;BME280;36133;42.522;27.456;2023-04-25T07:10:57;100374.31;;;19.90;45.80
50250;BME280;36133;42.522;27.456;2023-04-25T07:13:23;100340.34;;;20.82;43.19
50250;BME280;36133;42.522;27.456;2023-04-25T07:15:49;100038.69;;;17.60;45.23
50250;BME280;36133;42.522;27.456;2023-04-25T07:18:14;100539.47;;;20.29;46.45
50250;BME280;36133;42.522;27.456;2023-04-25T07:20:41;100150.56;;;17.72;46.73
50250;BME280;36133;42.522;27.456;2023-04-25T07:23:07;99989.00;;;16.34;45.78
50250;BME280;36133;42.522;27.456;2023-04-25T07:25:35;100524.56;;;19.59;46.94
50250;BME280;36133;42.522;27.456;2023-04-25T07:28:00;100334.66;;;19.27;44.93
50250;BME280;36133;42.522;27.456;2023-04-25T07:30:26;100378.06;;;19.84;44.33
50250;BME280;36133;42.522;27.456;2023-04-25T07:32:59;100059.59;;;17.54;44.94
50250;BME280;36133;42.522;27.456;2023-04-25T07:35:25;100568.56;;;20.52;45.67
50250;BME280;36133;42.522;27.456;2023-04-25T07:37:50;100301.53;;;19.50;43.99
50250;BME280;36133;42.522;27.456;2023-04-25T07:40:16;100372.25;;;20.93;42.75
50250;BME280;36133;42.522;27.456;2023-04-25T07:42:45;99990.88;;;19.21;41.73
50250;BME280;36133;42.522;27.456;2023-04-25T07:45:11;100211.78;;;19.52;43.34
50250;BME280;36133;42.522;27.456;2023-04-25T07:47:37;100118.47;;;19.27;42.95
50250;BME280;36133;42.522;27.456;2023-04-25T07:50:06;100563.59;;;21.62;43.81
50250;BME280;36133;42.522;27.456;2023-04-25T07:52:35;100008.34;;;18.88;42.75
50250;BME280;36133;42.522;27.456;2023-04-25T07:55:01;100350.03;;;20.26;43.99
50250;BME280;36133;42.522;27.456;2023-04-25T07:57:32;99996.28;;;18.57;43.30
50250;BME280;36133;42.522;27.456;2023-04-25T08:00:00;100060.38;;;18.66;43.75
50250;BME280;36133;42.522;27.456;2023-04-25T08:02:26;100543.31;;;23.19;41.59
50250;BME280;36133;42.522;27.456;2023-04-25T08:04:53;100539.69;;;23.79;39.66
50250;BME280;36133;42.522;27.456;2023-04-25T08:07:23;100171.59;;;21.78;38.97
50250;BME280;36133;42.522;27.456;2023-04-25T08:09:50;100385.31;;;24.73;36.22
50250;BME280;36133;42.522;27.456;2023-04-25T08:12:18;100095.75;;;21.97;37.75
50250;BME280;36133;42.522;27.456;2023-04-25T08:14:44;100276.84;;;22.75;38.27
50250;BME280;36133;42.522;27.456;2023-04-25T08:17:10;100225.81;;;24.07;35.27
50250;BME280;36133;42.522;27.456;2023-04-25T08:19:41;100017.56;;;22.93;35.31
50250;BME280;36133;42.522;27.456;2023-04-25T08:22:14;100371.88;;;25.19;34.79
50250;BME280;36133;42.522;27.456;2023-04-25T08:24:40;100264.34;;;25.28;33.35
50250;BME280;36133;42.522;27.456;2023-04-25T08:27:09;100308.72;;;25.55;33.25
50250;BME280;36133;42.522;27.456;2023-04-25T08:29:36;100341.94;;;27.42;30.84
50250;BME280;36133;42.522;27.456;2023-04-25T08:32:02;100523.75;;;27.43;32.14
50250;BME280;36133;42.522;27.456;2023-04-25T08:34:28;100196.94;;;23.60;34.49
50250;BME280;36133;42.522;27.456;2023-04-25T08:36:55;100434.88;;;26.18;33.28
50250;BME280;36133;42.522;27.456;2023-04-25T08:39:21;100277.81;;;24.81;34.45
50250;BME280;36133;42.522;27.456;2023-04-25T08:41:47;100058.84;;;24.48;32.31
50250;BME280;36133;42.522;27.456;2023-04-25T08:44:34;100077.91;;;27.00;29.65
50250;BME280;36133;42.522;27.456;2023-04-25T08:47:04;100373.00;;;30.25;26.63
50250;BME280;36133;42.522;27.456;2023-04-25T08:49:33;100518.47;;;28.93;29.70
50250;BME280;36133;42.522;27.456;2023-04-25T08:52:02;100397.47;;;31.18;26.56
50250;BME280;36133;42.522;27.456;2023-04-25T08:54:30;100151.13;;;31.64;23.70
50250;BME280;36133;42.522;27.456;2023-04-25T08:56:57;100181.25;;;34.59;21.50
50250;BME280;36133;42.522;27.456;2023-04-25T08:59:36;100232.00;;;36.10;20.21
50250;BME280;36133;42.522;27.456;2023-04-25T09:02:04;100374.31;;;33.84;23.36
50250;BME280;36133;42.522;27.456;2023-04-25T09:04:31;100171.06;;;33.67;22.07
50250;BME280;36133;42.522;27.456;2023-04-25T09:07:00;100509.97;;;36.54;21.45
50250;BME280;36133;42.522;27.456;2023-04-25T09:09:29;100411.09;;;33.12;23.70
50250;BME280;36133;42.522;27.456;2023-04-25T09:11:54;100255.31;;;32.88;23.84
50250;BME280;36133;42.522;27.456;2023-04-25T09:14:22;100325.81;;;36.83;20.45
50250;BME280;36133;42.522;27.456;2023-04-25T09:16:57;100387.97;;;35.21;22.04
50250;BME280;36133;42.522;27.456;2023-04-25T09:19:36;100184.72;;;36.12;20.52
50250;BME280;36133;42.522;27.456;2023-04-25T09:22:05;100399.84;;;34.87;22.76
50250;BME280;36133;42.522;27.456;2023-04-25T09:24:38;100342.25;;;34.33;23.22
50250;BME280;36133;42.522;27.456;2023-04-25T09:27:38;100126.13;;;31.89;24.02
50250;BME280;36133;42.522;27.456;2023-04-25T09:29:59;100312.78;;;36.75;20.74
50250;BME280;36133;42.522;27.456;2023-04-25T09:32:34;100334.41;;;39.34;18.81
50250;BME280;36133;42.522;27.456;2023-04-25T09:35:09;100279.34;;;37.38;20.41
50250;BME280;36133;42.522;27.456;2023-04-25T09:37:45;100431.09;;;40.19;19.17
50250;BME280;36133;42.522;27.456;2023-04-25T09:40:14;100023.28;;;38.27;18.20
50250;BME280;36133;42.522;27.456;2023-04-25T09:42:41;100041.13;;;34.94;21.32
50250;BME280;36133;42.522;27.456;2023-04-25T09:45:29;100044.91;;;39.47;17.37
50250;BME280;36133;42.522;27.456;2023-04-25T09:48:20;100389.00;;;39.04;19.41
50250;BME280;36133;42.522;27.456;2023-04-25T09:51:13;100422.41;;;40.56;18.39
50250;BME280;36133;42.522;27.456;2023-04-25T09:53:46;100424.19;;;41.04;18.41
50250;BME280;36133;42.522;27.456;2023-04-25T09:56:30;100014.56;;;41.15;16.01
50250;BME280;36133;42.522;27.456;2023-04-25T09:59:04;100190.13;;;38.43;18.56
50250;BME280;36133;42.522;27.456;2023-04-25T10:01:42;99968.31;;;36.58;18.99
50250;BME280;36133;42.522;27.456;2023-04-25T10:04:11;100329.50;;;38.79;19.01
50250;BME280;36133;42.522;27.456;2023-04-25T10:06:38;100419.31;;;37.41;20.64
50250;BME280;36133;42.522;27.456;2023-04-25T10:09:08;100407.56;;;37.36;20.72
50250;BME280;36133;42.522;27.456;2023-04-25T10:11:36;100004.72;;;31.83;24.11
50250;BME280;36133;42.522;27.456;2023-04-25T10:14:02;100238.41;;;35.88;21.51
50250;BME280;36133;42.522;27.456;2023-04-25T10:16:28;99952.72;;;33.79;21.46
50250;BME280;36133;42.522;27.456;2023-04-25T10:18:55;99903.25;;;32.52;22.92
50250;BME280;36133;42.522;27.456;2023-04-25T10:21:28;99960.34;;;34.45;21.45
50250;BME280;36133;42.522;27.456;2023-04-25T10:24:06;100231.53;;;34.99;22.07
50250;BME280;36133;42.522;27.456;2023-04-25T10:26:35;99916.03;;;31.31;24.04
50250;BME280;36133;42.522;27.456;2023-04-25T10:29:10;100079.47;;;30.73;24.99
50250;BME280;36133;42.522;27.456;2023-04-25T10:31:45;99906.47;;;28.66;26.55
50250;BME280;36133;42.522;27.456;2023-04-25T10:34:15;100142.75;;;27.27;30.00
50250;BME280;36133;42.522;27.456;2023-04-25T10:36:42;100088.97;;;28.74;28.69
50250;BME280;36133;42.522;27.456;2023-04-25T10:39:08;100293.28;;;32.23;25.93
50250;BME280;36133;42.522;27.456;2023-04-25T10:41:56;99925.91;;;30.53;24.87
50250;BME280;36133;42.522;27.456;2023-04-25T10:44:34;100111.59;;;32.89;24.11
50250;BME280;36133;42.522;27.456;2023-04-25T10:47:06;99954.25;;;33.17;22.01
50250;BME280;36133;42.522;27.456;2023-04-25T10:49:33;100368.88;;;34.27;23.48
50250;BME280;36133;42.522;27.456;2023-04-25T10:52:27;100375.22;;;34.12;23.38
50250;BME280;36133;42.522;27.456;2023-04-25T10:54:57;99921.78;;;29.15;25.40
50250;BME280;36133;42.522;27.456;2023-04-25T10:57:44;100228.50;;;29.28;27.40
50250;BME280;36133;42.522;27.456;2023-04-25T11:00:15;100403.88;;;28.65;29.87
50250;BME280;36133;42.522;27.456;2023-04-25T11:05:26;99936.56;;;25.37;31.86
50250;BME280;36133;42.522;27.456;2023-04-25T11:08:11;99901.28;;;24.50;35.48
50250;BME280;36133;42.522;27.456;2023-04-25T11:13:41;100091.13;;;27.53;32.72
50250;BME280;36133;42.522;27.456;2023-04-25T11:16:15;100211.69;;;26.87;32.76
50250;BME280;36133;42.522;27.456;2023-04-25T11:18:42;99873.75;;;23.64;33.34
50250;BME280;36133;42.522;27.456;2023-04-25T11:21:10;99953.41;;;23.56;33.65
50250;BME280;36133;42.522;27.456;2023-04-25T11:23:36;99785.72;;;21.60;34.13
50250;BME280;36133;42.522;27.456;2023-04-25T11:26:03;100326.53;;;23.99;35.07
50250;BME280;36133;42.522;27.456;2023-04-25T11:28:29;100203.34;;;22.96;35.30
50250;BME280;36133;42.522;27.456;2023-04-25T11:30:56;99837.78;;;21.85;34.06
50250;BME280;36133;42.522;27.456;2023-04-25T11:33:25;100197.44;;;22.38;35.74
50250;BME280;36133;42.522;27.456;2023-04-25T11:35:55;99888.53;;;20.77;34.59
50250;BME280;36133;42.522;27.456;2023-04-25T11:38:22;100377.56;;;22.61;36.04
50250;BME280;36133;42.522;27.456;2023-04-25T11:40:56;99919.34;;;19.07;42.27
50250;BME280;36133;42.522;27.456;2023-04-25T11:43:25;100268.72;;;19.07;51.81
50250;BME280;36133;42.522;27.456;2023-04-25T11:45:54;100210.78;;;20.60;50.27
50250;BME280;36133;42.522;27.456;2023-04-25T11:48:20;100132.75;;;22.56;49.46
50250;BME280;36133;42.522;27.456;2023-04-25T11:50:48;100137.41;;;26.20;41.41
50250;BME280;36133;42.522;27.456;2023-04-25T11:53:18;99932.56;;;26.75;35.93
50250;BME280;36133;42.522;27.456;2023-04-25T11:55:47;99970.31;;;25.01;36.74
50250;BME280;36133;42.522;27.456;2023-04-25T11:58:16;100086.88;;;24.32;37.50
50250;BME280;36133;42.522;27.456;2023-04-25T12:00:42;100127.22;;;23.20;40.96
50250;BME280;36133;42.522;27.456;2023-04-25T12:03:23;100174.78;;;22.71;41.00
50250;BME280;36133;42.522;27.456;2023-04-25T12:06:04;100263.72;;;22.21;42.51
50250;BME280;36133;42.522;27.456;2023-04-25T12:08:33;100169.97;;;20.78;44.52
50250;BME280;36133;42.522;27.456;2023-04-25T12:10:59;100177.28;;;20.20;44.39
50250;BME280;36133;42.522;27.456;2023-04-25T12:13:27;100374.34;;;20.44;46.32
50250;BME280;36133;42.522;27.456;2023-04-25T12:15:57;100194.41;;;17.53;50.58
50250;BME280;36133;42.522;27.456;2023-04-25T12:18:25;99854.44;;;16.35;51.43
50250;BME280;36133;42.522;27.456;2023-04-25T12:21:00;100175.28;;;19.74;49.30
50250;BME280;36133;42.522;27.456;2023-04-25T12:23:27;100067.16;;;20.24;49.81
50250;BME280;36133;42.522;27.456;2023-04-25T12:25:56;99982.84;;;21.78;46.17
50250;BME280;36133;42.522;27.456;2023-04-25T12:28:23;100007.63;;;22.48;46.89
50250;BME280;36133;42.522;27.456;2023-04-25T12:30:53;100156.38;;;24.81;44.71
50250;BME280;36133;42.522;27.456;2023-04-25T12:33:27;99894.75;;;24.03;45.01
50250;BME280;36133;42.522;27.456;2023-04-25T12:35:56;100140.84;;;28.56;39.09
50250;BME280;36133;42.522;27.456;2023-04-25T12:38:28;100030.16;;;29.24;36.68
50250;BME280;36133;42.522;27.456;2023-04-25T12:40:59;100244.03;;;32.19;33.60
50250;BME280;36133;42.522;27.456;2023-04-25T12:43:25;100172.09;;;29.80;35.57
50250;BME280;36133;42.522;27.456;2023-04-25T12:45:55;100264.09;;;32.66;32.91
50250;BME280;36133;42.522;27.456;2023-04-25T12:48:22;100126.16;;;34.35;29.46
50250;BME280;36133;42.522;27.456;2023-04-25T12:50:58;100280.03;;;35.66;26.89